createdAt,value
2018-11-14T00:01:55.294Z,8.40
2018-11-14T00:04:25.415Z,8.40
2018-11-14T00:06:55.374Z,8.40
2018-11-14T00:09:25.268Z,8.40
2018-11-14T00:11:55.154Z,8.40
2018-11-14T00:14:25.115Z,8.40
2018-11-14T00:16:55.595Z,8.30
2018-11-14T00:19:25.535Z,8.30
2018-11-14T00:21:55.434Z,8.30
2018-11-14T00:24:25.858Z,8.20
2018-11-14T00:26:55.864Z,8.20
2018-11-14T00:29:25.919Z,8.20
2018-11-14T00:31:55.694Z,8.30
2018-11-14T00:34:25.430Z,8.30
2018-11-14T00:36:55.088Z,8.20
2018-11-14T00:39:24.916Z,8.20
2018-11-14T00:41:54.335Z,8.20
2018-11-14T00:44:23.856Z,8.20
2018-11-14T00:46:54.075Z,8.10
2018-11-14T00:49:23.761Z,8.20
2018-11-14T00:51:53.596Z,8.20
2018-11-14T00:54:23.495Z,8.20
2018-11-14T00:56:52.997Z,8.20
2018-11-14T00:59:23.115Z,8.20
2018-11-14T01:01:54.307Z,8.20
2018-11-14T01:04:24.635Z,8.10
2018-11-14T01:06:54.396Z,8.10
2018-11-14T01:09:24.875Z,8.00
2018-11-14T01:11:55.015Z,8.00
2018-11-14T01:14:24.635Z,8.00
2018-11-14T01:16:54.115Z,7.90
2018-11-14T01:19:24.416Z,7.90
2018-11-14T01:21:54.556Z,7.80
2018-11-14T01:24:24.495Z,7.80
2018-11-14T01:26:54.217Z,7.80
2018-11-14T01:29:24.338Z,7.80
2018-11-14T01:31:54.035Z,7.80
2018-11-14T01:34:23.615Z,7.70
2018-11-14T01:36:54.055Z,7.80
2018-11-14T01:39:23.998Z,7.80
2018-11-14T01:41:55.795Z,7.80
2018-11-14T01:44:25.656Z,7.70
2018-11-14T01:46:55.016Z,7.70
2018-11-14T01:49:25.555Z,7.70
2018-11-14T01:51:55.195Z,7.60
2018-11-14T01:54:26.635Z,7.60
2018-11-14T01:56:56.415Z,7.50
2018-11-14T01:59:26.515Z,7.50
2018-11-14T02:01:56.335Z,7.50
2018-11-14T02:04:26.020Z,7.40
2018-11-14T02:06:55.755Z,7.40
2018-11-14T02:09:25.475Z,7.30
2018-11-14T02:11:55.336Z,7.30
2018-11-14T02:14:25.177Z,7.20
2018-11-14T02:16:59.375Z,7.20
2018-11-14T02:19:29.174Z,7.10
2018-11-14T02:22:00.194Z,7.10
2018-11-14T02:24:30.836Z,7.10
2018-11-14T02:27:00.714Z,7.10
2018-11-14T02:29:30.416Z,7.10
2018-11-14T02:32:00.022Z,7.10
2018-11-14T02:34:29.895Z,7.10
2018-11-14T02:37:00.315Z,7.20
2018-11-14T02:39:30.694Z,7.20
2018-11-14T02:42:01.615Z,7.20
2018-11-14T02:44:31.535Z,7.20
2018-11-14T02:47:01.294Z,7.30
2018-11-14T02:49:31.378Z,7.30
2018-11-14T02:52:01.075Z,7.30
2018-11-14T02:54:31.174Z,7.30
2018-11-14T02:57:01.255Z,7.30
2018-11-14T02:59:30.915Z,7.30
2018-11-14T03:02:05.257Z,7.30
2018-11-14T03:04:34.977Z,7.30
2018-11-14T03:07:10.217Z,7.30
2018-11-14T03:09:39.977Z,7.30
2018-11-14T03:12:09.895Z,7.30
2018-11-14T03:14:40.020Z,7.30
2018-11-14T03:17:10.000Z,7.30
2018-11-14T03:19:39.980Z,7.30
2018-11-14T03:22:09.961Z,7.20
2018-11-14T03:24:42.958Z,7.20
2018-11-14T03:27:13.497Z,7.20
2018-11-14T03:29:43.077Z,7.20
2018-11-14T03:32:12.878Z,7.20
2018-11-14T03:34:43.018Z,7.20
2018-11-14T03:37:13.177Z,7.20
2018-11-14T03:39:43.397Z,7.20
2018-11-14T03:42:13.258Z,7.10
2018-11-14T03:44:43.078Z,7.00
2018-11-14T03:47:17.017Z,7.00
2018-11-14T03:49:46.738Z,7.10
2018-11-14T03:52:16.439Z,7.00
2018-11-14T03:54:46.517Z,7.00
2018-11-14T03:57:15.977Z,7.00
2018-11-14T03:59:54.197Z,7.00
2018-11-14T04:02:24.135Z,7.00
2018-11-14T04:04:53.997Z,6.90
2018-11-14T04:07:28.844Z,6.90
2018-11-14T04:09:58.541Z,6.90
2018-11-14T04:12:28.377Z,6.90
2018-11-14T04:14:58.257Z,7.00
2018-11-14T04:17:27.817Z,6.90
2018-11-14T04:20:01.797Z,6.90
2018-11-14T04:22:31.437Z,6.90
2018-11-14T04:25:01.358Z,6.90
2018-11-14T04:27:30.957Z,6.90
2018-11-14T04:30:00.785Z,7.00
2018-11-14T04:32:30.698Z,6.90
2018-11-14T04:35:01.118Z,7.00
2018-11-14T04:37:31.608Z,6.90
2018-11-14T04:40:01.738Z,6.90
2018-11-14T04:42:32.138Z,6.80
2018-11-14T04:45:02.119Z,6.80
2018-11-14T04:47:31.857Z,6.80
2018-11-14T04:50:02.377Z,6.80
2018-11-14T04:52:31.898Z,6.80
2018-11-14T04:55:01.458Z,6.80
2018-11-14T04:57:31.657Z,6.80
2018-11-14T05:00:01.417Z,6.90
2018-11-14T05:02:31.564Z,6.90
2018-11-14T05:05:01.276Z,6.90
2018-11-14T05:07:31.236Z,6.80
2018-11-14T05:10:01.476Z,6.80
2018-11-14T05:12:31.256Z,6.80
2018-11-14T05:15:01.339Z,6.80
2018-11-14T05:17:31.316Z,6.80
2018-11-14T05:20:01.036Z,6.80
2018-11-14T05:22:31.097Z,6.90
2018-11-14T05:25:01.683Z,6.80
2018-11-14T05:27:31.876Z,6.90
2018-11-14T05:30:01.438Z,6.80
2018-11-14T05:32:32.316Z,6.80
2018-11-14T05:35:02.058Z,6.80
2018-11-14T05:37:31.656Z,6.80
2018-11-14T05:40:01.326Z,6.80
2018-11-14T05:42:31.156Z,6.80
2018-11-14T05:45:00.856Z,6.80
2018-11-14T05:47:34.543Z,6.70
2018-11-14T05:50:04.417Z,6.70
2018-11-14T05:52:35.376Z,6.70
2018-11-14T05:55:05.102Z,6.70
2018-11-14T05:57:35.177Z,6.70
2018-11-14T06:00:06.219Z,6.70
2018-11-14T06:02:41.679Z,6.70
2018-11-14T06:05:11.456Z,6.70
2018-11-14T06:07:41.255Z,6.70
2018-11-14T06:10:12.416Z,6.70
2018-11-14T06:12:43.216Z,6.70
2018-11-14T06:15:17.540Z,6.60
2018-11-14T06:17:47.558Z,6.60
2018-11-14T06:20:18.456Z,6.60
2018-11-14T06:22:49.596Z,6.60
2018-11-14T06:25:27.498Z,6.60
2018-11-14T06:27:57.896Z,6.50
2018-11-14T06:30:27.617Z,6.50
2018-11-14T06:32:58.377Z,6.50
2018-11-14T06:35:28.356Z,6.50
2018-11-14T06:37:58.537Z,6.50
2018-11-14T06:40:28.336Z,6.50
2018-11-14T06:42:58.391Z,6.50
2018-11-14T06:45:29.416Z,6.40
2018-11-14T06:48:00.076Z,6.40
2018-11-14T06:50:29.422Z,6.40
2018-11-14T06:53:00.637Z,6.40
2018-11-14T06:55:31.707Z,6.40
2018-11-14T06:58:01.416Z,6.40
2018-11-14T07:00:32.077Z,6.50
2018-11-14T07:03:03.312Z,6.50
2018-11-14T07:05:33.872Z,6.50
2018-11-14T07:08:03.677Z,6.50
2018-11-14T07:10:35.357Z,6.50
2018-11-14T07:13:13.737Z,6.50
2018-11-14T07:15:44.238Z,6.50
2018-11-14T07:18:14.097Z,6.40
2018-11-14T07:20:46.396Z,6.40
2018-11-14T07:23:16.298Z,6.30
2018-11-14T07:25:46.057Z,6.30
2018-11-14T07:28:15.738Z,6.30
2018-11-14T07:30:45.924Z,6.20
2018-11-14T07:33:15.336Z,6.20
2018-11-14T07:35:46.999Z,6.30
2018-11-14T07:38:50.556Z,6.30
2018-11-14T07:41:29.797Z,6.40
2018-11-14T07:43:59.359Z,6.40
2018-11-14T07:46:31.694Z,6.40
2018-11-14T07:49:01.992Z,6.40
2018-11-14T07:51:31.634Z,6.50
2018-11-14T07:54:01.175Z,6.60
2018-11-14T07:56:35.123Z,6.60
2018-11-14T07:59:04.675Z,6.60
2018-11-14T08:01:34.421Z,6.60
2018-11-14T08:04:04.621Z,6.60
2018-11-14T08:06:34.461Z,6.70
2018-11-14T08:09:08.540Z,6.80
2018-11-14T08:11:38.262Z,6.80
2018-11-14T08:14:14.862Z,6.90
2018-11-14T08:16:45.022Z,6.90
2018-11-14T08:19:14.481Z,6.90
2018-11-14T08:21:44.682Z,6.90
2018-11-14T08:24:14.148Z,7.00
2018-11-14T08:26:43.921Z,7.00
2018-11-14T08:29:17.562Z,7.10
2018-11-14T08:31:47.442Z,7.10
2018-11-14T08:34:17.358Z,7.20
2018-11-14T08:36:46.858Z,7.20
2018-11-14T08:39:17.183Z,7.20
2018-11-14T08:41:47.118Z,7.30
2018-11-14T08:44:17.304Z,7.40
2018-11-14T08:46:46.863Z,7.40
2018-11-14T08:49:16.618Z,7.50
2018-11-14T08:51:46.467Z,7.60
2018-11-14T08:54:16.138Z,7.70
2018-11-14T08:56:45.898Z,7.70
2018-11-14T08:59:15.719Z,7.80
2018-11-14T09:01:45.359Z,7.80
2018-11-14T09:04:16.337Z,7.90
2018-11-14T09:06:46.857Z,7.90
2018-11-14T09:09:16.657Z,7.90
2018-11-14T09:11:47.497Z,7.90
2018-11-14T09:14:17.209Z,7.90
2018-11-14T09:16:46.978Z,7.90
2018-11-14T09:19:16.537Z,7.90
2018-11-14T09:21:47.856Z,7.90
2018-11-14T09:24:17.676Z,7.90
2018-11-14T09:26:47.135Z,7.90
2018-11-14T09:29:17.254Z,8.00
2018-11-14T09:31:46.915Z,8.10
2018-11-14T09:34:16.715Z,8.00
2018-11-14T09:36:46.514Z,8.10
2018-11-14T09:39:16.675Z,8.00
2018-11-14T09:41:46.136Z,8.00
2018-11-14T09:44:15.754Z,8.20
2018-11-14T09:46:45.315Z,8.30
2018-11-14T09:49:21.794Z,8.40
2018-11-14T09:51:51.455Z,8.60
2018-11-14T09:54:21.254Z,8.60
2018-11-14T09:56:50.957Z,8.60
2018-11-14T09:59:20.455Z,8.60
2018-11-14T10:01:50.125Z,8.70
2018-11-14T10:04:19.802Z,8.80
2018-11-14T10:06:49.383Z,9.10
2018-11-14T10:09:19.323Z,9.20
2018-11-14T10:11:49.592Z,9.40
2018-11-14T10:14:19.282Z,9.60
2018-11-14T10:16:48.924Z,9.70
2018-11-14T10:19:18.765Z,9.70
2018-11-14T10:21:48.762Z,9.60
2018-11-14T10:24:18.803Z,9.50
2018-11-14T10:26:48.987Z,9.60
2018-11-14T10:29:19.063Z,9.50
2018-11-14T10:31:48.839Z,9.50
2018-11-14T10:34:19.023Z,9.60
2018-11-14T10:36:48.882Z,9.60
2018-11-14T10:39:18.767Z,9.70
2018-11-14T10:41:48.323Z,9.80
2018-11-14T10:44:18.582Z,9.90
2018-11-14T10:46:48.545Z,10.00
2018-11-14T10:49:18.222Z,10.10
2018-11-14T10:51:49.222Z,10.00
2018-11-14T10:54:19.142Z,10.00
2018-11-14T10:56:48.643Z,9.90
2018-11-14T10:59:18.903Z,10.00
2018-11-14T11:01:53.916Z,10.10
2018-11-14T11:04:28.995Z,10.20
2018-11-14T11:07:03.860Z,10.30
2018-11-14T11:09:39.222Z,10.40
2018-11-14T11:12:16.142Z,10.40
2018-11-14T11:14:51.439Z,10.50
2018-11-14T11:18:24.779Z,10.50
2018-11-14T11:20:54.919Z,10.60
2018-11-14T11:23:24.687Z,10.60
2018-11-14T11:25:54.706Z,10.60
2018-11-14T11:28:28.899Z,10.70
2018-11-14T11:33:32.401Z,10.70
2018-11-14T11:36:02.759Z,10.70
2018-11-14T11:38:32.999Z,10.70
2018-11-14T11:41:02.676Z,10.60
2018-11-14T11:43:33.375Z,10.50
2018-11-14T11:46:03.095Z,10.40
2018-11-14T11:48:38.275Z,10.40
2018-11-14T11:51:07.870Z,10.30
2018-11-14T11:53:37.814Z,10.30
2018-11-14T11:56:07.817Z,10.30
2018-11-14T11:58:37.575Z,10.30
2018-11-14T12:01:08.522Z,10.30
2018-11-14T12:03:39.282Z,10.30
2018-11-14T12:06:09.857Z,10.40
2018-11-14T12:08:39.582Z,10.40
2018-11-14T12:11:09.442Z,10.20
2018-11-14T12:13:39.205Z,10.00
2018-11-14T12:16:13.505Z,10.00
2018-11-14T12:18:43.044Z,10.00
2018-11-14T12:21:12.743Z,10.10
2018-11-14T12:23:42.588Z,10.30
2018-11-14T12:26:17.642Z,10.40
2018-11-14T12:28:47.162Z,10.50
2018-11-14T12:31:16.857Z,10.60
2018-11-14T12:33:46.664Z,10.60
2018-11-14T12:36:16.781Z,10.70
2018-11-14T12:38:46.881Z,10.70
2018-11-14T12:41:16.625Z,10.80
2018-11-14T12:43:51.822Z,10.80
2018-11-14T12:46:21.902Z,10.90
2018-11-14T12:48:51.625Z,10.80
2018-11-14T12:51:26.462Z,10.80
2018-11-14T12:53:56.306Z,10.80
2018-11-14T12:56:26.782Z,10.90
2018-11-14T12:58:56.402Z,10.90
2018-11-14T13:01:26.902Z,10.90
2018-11-14T13:03:56.483Z,10.80
2018-11-14T13:06:26.343Z,10.80
2018-11-14T13:11:29.861Z,10.70
2018-11-14T13:13:59.522Z,10.70
2018-11-14T13:16:29.622Z,10.80
2018-11-14T13:18:59.462Z,10.90
2018-11-14T13:21:29.464Z,10.90
2018-11-14T13:23:59.141Z,11.00
2018-11-14T13:26:28.742Z,11.00
2018-11-14T13:28:58.413Z,11.10
2018-11-14T13:31:28.366Z,11.10
2018-11-14T13:33:58.144Z,11.10
2018-11-14T13:36:27.983Z,11.10
2018-11-14T13:38:58.043Z,11.10
2018-11-14T13:41:27.822Z,11.10
2018-11-14T13:43:57.904Z,11.20
2018-11-14T13:46:31.702Z,11.20
2018-11-14T13:49:03.295Z,11.10
2018-11-14T13:51:33.055Z,11.00
2018-11-14T13:54:03.374Z,10.90
2018-11-14T13:56:33.415Z,10.90
2018-11-14T13:59:03.080Z,10.90
2018-11-14T14:01:32.902Z,10.90
2018-11-14T14:04:02.623Z,10.90
2018-11-14T14:06:33.057Z,10.90
2018-11-14T14:09:02.860Z,10.90
2018-11-14T14:11:32.798Z,10.80
2018-11-14T14:14:12.878Z,10.80
2018-11-14T14:16:43.957Z,10.80
2018-11-14T14:19:14.377Z,10.80
2018-11-14T14:21:44.158Z,10.80
2018-11-14T14:24:13.877Z,10.80
2018-11-14T14:26:43.798Z,10.80
2018-11-14T14:29:16.157Z,10.70
2018-11-14T14:31:47.018Z,10.70
2018-11-14T14:34:16.517Z,10.70
2018-11-14T14:36:49.701Z,10.70
2018-11-14T14:39:19.901Z,10.70
2018-11-14T14:41:49.557Z,10.70
2018-11-14T14:44:31.857Z,10.70
2018-11-14T14:47:01.763Z,10.70
2018-11-14T14:49:31.258Z,10.70
2018-11-14T14:52:00.997Z,10.60
2018-11-14T14:54:30.918Z,10.60
2018-11-14T14:57:00.737Z,10.60
2018-11-14T14:59:30.179Z,10.60
2018-11-14T15:02:00.135Z,10.60
2018-11-14T15:04:30.156Z,10.60
2018-11-14T15:07:00.195Z,10.50
2018-11-14T15:09:30.805Z,10.50
2018-11-14T15:12:04.662Z,10.50
2018-11-14T15:14:34.721Z,10.50
2018-11-14T15:17:04.343Z,10.40
2018-11-14T15:19:34.174Z,10.40
2018-11-14T15:22:04.621Z,10.40
2018-11-14T15:24:34.321Z,10.30
2018-11-14T15:27:13.402Z,10.30
2018-11-14T15:29:43.249Z,10.30
2018-11-14T15:32:12.802Z,10.30
2018-11-14T15:34:42.422Z,10.30
2018-11-14T15:37:18.769Z,10.20
2018-11-14T15:39:48.942Z,10.20
2018-11-14T15:42:25.337Z,10.10
2018-11-14T15:45:02.515Z,10.10
2018-11-14T15:47:34.936Z,10.10
2018-11-14T15:50:08.085Z,10.10
2018-11-14T15:52:41.835Z,10.00
2018-11-14T15:55:13.095Z,10.00
2018-11-14T15:57:46.270Z,10.00
2018-11-14T16:00:22.352Z,9.90
2018-11-14T16:03:01.987Z,9.90
2018-11-14T16:05:33.061Z,9.90
2018-11-14T16:08:09.556Z,9.90
2018-11-14T16:10:39.180Z,9.80
2018-11-14T16:13:09.201Z,9.80
2018-11-14T16:15:39.241Z,9.70
2018-11-14T16:18:10.114Z,9.70
2018-11-14T16:20:40.141Z,9.60
2018-11-14T16:23:09.960Z,9.50
2018-11-14T16:25:39.579Z,9.50
2018-11-14T16:28:09.360Z,9.50
2018-11-14T16:30:39.461Z,9.40
2018-11-14T16:33:10.219Z,9.40
2018-11-14T16:35:39.919Z,9.40
2018-11-14T16:38:09.471Z,9.40
2018-11-14T16:40:38.980Z,9.40
2018-11-14T16:43:09.362Z,9.20
2018-11-14T16:45:39.161Z,9.20
2018-11-14T16:48:08.698Z,9.10
2018-11-14T16:50:41.923Z,9.00
2018-11-14T16:53:11.279Z,9.00
2018-11-14T16:55:44.212Z,9.00
2018-11-14T16:58:13.690Z,8.90
2018-11-14T17:00:44.423Z,8.90
2018-11-14T17:03:13.926Z,9.00
2018-11-14T17:05:43.412Z,8.90
2018-11-14T17:08:12.963Z,8.80
2018-11-14T17:10:42.542Z,8.70
2018-11-14T17:13:11.863Z,8.70
2018-11-14T17:15:43.229Z,8.60
2018-11-14T17:18:12.617Z,8.60
2018-11-14T17:20:44.379Z,8.60
2018-11-14T17:23:13.941Z,8.50
2018-11-14T17:25:46.477Z,8.50
2018-11-14T17:28:16.236Z,8.50
2018-11-14T17:30:45.957Z,8.50
2018-11-14T17:33:15.570Z,8.50
2018-11-14T17:35:49.119Z,8.40
2018-11-14T17:38:18.555Z,8.40
2018-11-14T17:40:48.035Z,8.30
2018-11-14T17:43:17.475Z,8.30
2018-11-14T17:45:49.556Z,8.30
2018-11-14T17:48:19.566Z,8.30
2018-11-14T17:50:49.269Z,8.30
2018-11-14T17:53:18.640Z,8.40
2018-11-14T17:55:50.379Z,8.40
2018-11-14T17:58:24.120Z,8.40
2018-11-14T18:00:53.632Z,8.50
2018-11-14T18:03:23.790Z,8.50
2018-11-14T18:05:53.201Z,8.50
2018-11-14T18:08:26.296Z,8.60
2018-11-14T18:10:55.841Z,8.60
2018-11-14T18:13:25.245Z,8.60
2018-11-14T18:15:54.756Z,8.40
2018-11-14T18:18:24.196Z,8.30
2018-11-14T18:20:53.580Z,8.30
2018-11-14T18:25:56.656Z,8.20
2018-11-14T18:28:26.165Z,8.20
2018-11-14T18:30:59.346Z,8.20
2018-11-14T18:33:28.798Z,8.10
2018-11-14T18:35:58.466Z,8.10
2018-11-14T18:38:28.224Z,8.10
2018-11-14T18:41:00.314Z,8.10
2018-11-14T18:43:30.177Z,8.10
2018-11-14T18:46:00.080Z,8.10
2018-11-14T18:48:30.097Z,8.10
2018-11-14T18:51:00.051Z,8.10
2018-11-14T18:53:38.929Z,8.10
2018-11-14T18:56:09.454Z,8.20
2018-11-14T18:58:39.747Z,8.20
2018-11-14T19:01:09.905Z,8.20
2018-11-14T19:03:39.785Z,8.20
2018-11-14T19:06:10.584Z,8.20
2018-11-14T19:08:42.024Z,8.20
2018-11-14T19:11:11.744Z,8.10
2018-11-14T19:13:41.585Z,8.00
2018-11-14T19:16:11.305Z,8.00
2018-11-14T19:18:40.945Z,8.10
2018-11-14T19:21:10.925Z,8.10
2018-11-14T19:23:41.585Z,8.10
2018-11-14T19:26:11.804Z,8.10
2018-11-14T19:28:42.086Z,8.10
2018-11-14T19:31:11.905Z,8.20
2018-11-14T19:36:16.169Z,8.20
2018-11-14T19:38:47.303Z,8.20
2018-11-14T19:41:17.204Z,8.10
2018-11-14T19:46:26.420Z,8.10
2018-11-14T19:51:34.870Z,8.00
2018-11-14T19:54:04.944Z,8.00
2018-11-14T19:56:35.020Z,8.00
2018-11-14T19:59:05.020Z,8.00
2018-11-14T20:01:35.300Z,8.00
2018-11-14T20:04:05.940Z,8.00
2018-11-14T20:06:36.041Z,8.10
2018-11-14T20:09:09.880Z,8.10
2018-11-14T20:11:46.400Z,8.10
2018-11-14T20:14:16.461Z,8.10
2018-11-14T20:16:46.903Z,8.20
2018-11-14T20:19:17.551Z,8.20
2018-11-14T20:21:47.297Z,8.20
2018-11-14T20:24:17.177Z,8.20
2018-11-14T20:26:47.503Z,8.20
2018-11-14T20:29:17.141Z,8.20
2018-11-14T20:31:46.731Z,8.20
2018-11-14T20:34:20.900Z,8.30
2018-11-14T20:36:52.141Z,8.30
2018-11-14T20:39:23.746Z,8.30
2018-11-14T20:41:54.324Z,8.30
2018-11-14T20:44:25.340Z,8.30
2018-11-14T20:46:56.200Z,8.30
2018-11-14T20:49:26.199Z,8.30
2018-11-14T20:51:56.337Z,8.30
2018-11-14T20:54:26.024Z,8.30
2018-11-14T20:56:56.724Z,8.30
2018-11-14T20:59:27.264Z,8.40
2018-11-14T21:01:57.966Z,8.40
2018-11-14T21:04:28.302Z,8.30
2018-11-14T21:06:57.940Z,8.30
2018-11-14T21:09:27.703Z,8.30
2018-11-14T21:11:58.159Z,8.20
2018-11-14T21:14:28.223Z,8.20
2018-11-14T21:16:57.937Z,8.10
2018-11-14T21:19:29.538Z,8.10
2018-11-14T21:21:59.350Z,8.10
2018-11-14T21:24:29.700Z,8.00
2018-11-14T21:26:59.341Z,8.00
2018-11-14T21:29:29.188Z,7.90
2018-11-14T21:31:58.901Z,7.90
2018-11-14T21:34:29.718Z,8.00
2018-11-14T21:36:59.678Z,8.00
2018-11-14T21:39:29.238Z,7.90
2018-11-14T21:41:59.138Z,7.90
2018-11-14T21:44:28.967Z,7.90
2018-11-14T21:46:58.895Z,8.00
2018-11-14T21:49:30.055Z,8.00
2018-11-14T21:52:00.594Z,8.00
2018-11-14T21:54:30.854Z,8.00
2018-11-14T21:57:00.518Z,8.10
2018-11-14T21:59:38.432Z,8.10
2018-11-14T22:02:08.138Z,8.00
2018-11-14T22:04:38.208Z,8.00
2018-11-14T22:07:07.903Z,8.10
2018-11-14T22:09:37.857Z,8.10
2018-11-14T22:12:11.659Z,8.10
2018-11-14T22:14:41.396Z,8.10
2018-11-14T22:17:10.874Z,8.10
2018-11-14T22:19:42.589Z,8.20
2018-11-14T22:22:12.099Z,8.20
2018-11-14T22:24:41.856Z,8.20
2018-11-14T22:27:12.276Z,8.20
2018-11-14T22:29:42.256Z,8.10
2018-11-14T22:32:11.882Z,8.10
2018-11-14T22:34:42.038Z,8.10
2018-11-14T22:37:11.814Z,8.10
2018-11-14T22:39:42.435Z,8.00
2018-11-14T22:42:12.114Z,8.00
2018-11-14T22:44:42.156Z,8.00
2018-11-14T22:47:13.620Z,8.00
2018-11-14T22:49:43.114Z,7.90
2018-11-14T22:52:12.714Z,7.90
2018-11-14T22:54:51.034Z,7.80
2018-11-14T22:57:23.616Z,7.80
2018-11-14T22:59:53.655Z,7.80
2018-11-14T23:02:23.847Z,7.80
2018-11-14T23:07:27.599Z,7.90
2018-11-14T23:09:57.366Z,8.00
2018-11-14T23:12:27.079Z,8.00
2018-11-14T23:14:57.500Z,8.00
2018-11-14T23:17:27.400Z,7.90
2018-11-14T23:19:57.259Z,7.90
2018-11-14T23:22:26.739Z,7.90
2018-11-14T23:24:58.061Z,7.90
2018-11-14T23:27:27.889Z,7.90
2018-11-14T23:29:57.581Z,7.80
2018-11-14T23:32:27.260Z,7.80
2018-11-14T23:35:33.779Z,7.80
2018-11-14T23:38:04.967Z,7.80
2018-11-14T23:40:34.461Z,7.70
2018-11-14T23:43:08.942Z,7.60
2018-11-14T23:45:38.619Z,7.60
2018-11-14T23:48:22.455Z,7.70
2018-11-14T23:50:52.124Z,7.80
2018-11-14T23:53:22.215Z,7.80
2018-11-14T23:55:52.194Z,7.80
2018-11-14T23:58:22.094Z,7.80
